sensor_id;sensor_type;location;lat;lon;timestamp;P1;durP1;ratioP1;P2;durP2;ratioP2
70150;SDS011;57517;43.562;19.540;2023-08-20T00:01:29;18.65;;;15.50;;
70150;SDS011;57517;43.562;19.540;2023-08-20T00:03:55;20.40;;;16.58;;
70150;SDS011;57517;43.562;19.540;2023-08-20T00:06:22;19.25;;;16.25;;
70150;SDS011;57517;43.562;19.540;2023-08-20T00:08:48;20.20;;;16.88;;
70150;SDS011;57517;43.562;19.540;2023-08-20T00:11:14;20.65;;;16.35;;
70150;SDS011;57517;43.562;19.540;2023-08-20T00:13:40;20.38;;;16.05;;
70150;SDS011;57517;43.562;19.540;2023-08-20T00:16:07;18.60;;;15.57;;
70150;SDS011;57517;43.562;19.540;2023-08-20T00:18:34;19.60;;;16.35;;
70150;SDS011;57517;43.562;19.540;2023-08-20T00:21:00;21.42;;;17.25;;
70150;SDS011;57517;43.562;19.540;2023-08-20T00:23:26;20.88;;;17.02;;
70150;SDS011;57517;43.562;19.540;2023-08-20T00:25:52;23.45;;;17.70;;
70150;SDS011;57517;43.562;19.540;2023-08-20T00:28:21;20.70;;;16.85;;
70150;SDS011;57517;43.562;19.540;2023-08-20T00:30:47;21.95;;;16.45;;
70150;SDS011;57517;43.562;19.540;2023-08-20T00:33:14;19.50;;;16.35;;
70150;SDS011;57517;43.562;19.540;2023-08-20T00:35:40;21.35;;;16.73;;
70150;SDS011;57517;43.562;19.540;2023-08-20T00:38:06;18.70;;;16.60;;
70150;SDS011;57517;43.562;19.540;2023-08-20T00:40:32;21.60;;;16.83;;
70150;SDS011;57517;43.562;19.540;2023-08-20T00:42:58;21.05;;;16.83;;
70150;SDS011;57517;43.562;19.540;2023-08-20T00:45:24;20.58;;;15.82;;
70150;SDS011;57517;43.562;19.540;2023-08-20T00:47:51;22.42;;;15.77;;
70150;SDS011;57517;43.562;19.540;2023-08-20T00:50:17;18.63;;;15.38;;
70150;SDS011;57517;43.562;19.540;2023-08-20T00:52:44;19.63;;;15.27;;
70150;SDS011;57517;43.562;19.540;2023-08-20T00:55:11;18.10;;;15.35;;
70150;SDS011;57517;43.562;19.540;2023-08-20T00:57:41;19.40;;;15.90;;
70150;SDS011;57517;43.562;19.540;2023-08-20T01:00:07;18.35;;;15.48;;
70150;SDS011;57517;43.562;19.540;2023-08-20T01:02:35;19.88;;;16.20;;
70150;SDS011;57517;43.562;19.540;2023-08-20T01:05:02;19.20;;;15.90;;
70150;SDS011;57517;43.562;19.540;2023-08-20T01:13:08;18.42;;;15.43;;
70150;SDS011;57517;43.562;19.540;2023-08-20T01:15:35;22.77;;;16.10;;
70150;SDS011;57517;43.562;19.540;2023-08-20T01:18:01;20.13;;;15.50;;
70150;SDS011;57517;43.562;19.540;2023-08-20T01:20:30;19.77;;;15.80;;
70150;SDS011;57517;43.562;19.540;2023-08-20T01:28:43;19.27;;;14.80;;
70150;SDS011;57517;43.562;19.540;2023-08-20T01:31:10;18.48;;;15.73;;
70150;SDS011;57517;43.562;19.540;2023-08-20T01:33:37;18.63;;;15.80;;
70150;SDS011;57517;43.562;19.540;2023-08-20T01:36:03;18.85;;;15.88;;
70150;SDS011;57517;43.562;19.540;2023-08-20T01:38:35;16.02;;;13.23;;
70150;SDS011;57517;43.562;19.540;2023-08-20T01:41:02;16.92;;;14.50;;
70150;SDS011;57517;43.562;19.540;2023-08-20T01:43:28;18.67;;;15.10;;
70150;SDS011;57517;43.562;19.540;2023-08-20T01:45:54;18.70;;;15.65;;
70150;SDS011;57517;43.562;19.540;2023-08-20T01:48:20;18.55;;;14.70;;
70150;SDS011;57517;43.562;19.540;2023-08-20T01:50:45;17.50;;;14.90;;
70150;SDS011;57517;43.562;19.540;2023-08-20T01:53:11;16.85;;;15.00;;
70150;SDS011;57517;43.562;19.540;2023-08-20T01:55:37;16.67;;;14.32;;
70150;SDS011;57517;43.562;19.540;2023-08-20T01:58:03;17.88;;;14.35;;
70150;SDS011;57517;43.562;19.540;2023-08-20T02:00:29;16.48;;;13.63;;
70150;SDS011;57517;43.562;19.540;2023-08-20T02:02:56;17.90;;;14.18;;
70150;SDS011;57517;43.562;19.540;2023-08-20T02:05:22;17.88;;;14.38;;
70150;SDS011;57517;43.562;19.540;2023-08-20T02:07:48;17.58;;;14.63;;
70150;SDS011;57517;43.562;19.540;2023-08-20T02:10:13;16.23;;;14.02;;
70150;SDS011;57517;43.562;19.540;2023-08-20T02:12:40;17.65;;;14.30;;
70150;SDS011;57517;43.562;19.540;2023-08-20T02:15:06;16.67;;;13.35;;
70150;SDS011;57517;43.562;19.540;2023-08-20T02:17:33;16.65;;;14.13;;
70150;SDS011;57517;43.562;19.540;2023-08-20T02:20:00;17.30;;;14.07;;
70150;SDS011;57517;43.562;19.540;2023-08-20T02:22:28;17.83;;;13.98;;
70150;SDS011;57517;43.562;19.540;2023-08-20T02:24:54;20.35;;;15.00;;
70150;SDS011;57517;43.562;19.540;2023-08-20T02:27:21;18.13;;;14.80;;
70150;SDS011;57517;43.562;19.540;2023-08-20T02:29:46;18.13;;;14.15;;
70150;SDS011;57517;43.562;19.540;2023-08-20T02:32:12;18.75;;;13.85;;
70150;SDS011;57517;43.562;19.540;2023-08-20T02:34:38;16.17;;;13.43;;
70150;SDS011;57517;43.562;19.540;2023-08-20T02:37:04;15.52;;;13.35;;
70150;SDS011;57517;43.562;19.540;2023-08-20T02:39:30;15.10;;;13.05;;
70150;SDS011;57517;43.562;19.540;2023-08-20T02:41:56;16.90;;;13.38;;
70150;SDS011;57517;43.562;19.540;2023-08-20T02:44:23;19.33;;;13.00;;
70150;SDS011;57517;43.562;19.540;2023-08-20T02:46:48;16.60;;;13.90;;
70150;SDS011;57517;43.562;19.540;2023-08-20T02:49:14;15.20;;;12.85;;
70150;SDS011;57517;43.562;19.540;2023-08-20T02:51:42;14.20;;;12.70;;
70150;SDS011;57517;43.562;19.540;2023-08-20T02:54:08;15.88;;;12.65;;
70150;SDS011;57517;43.562;19.540;2023-08-20T02:56:34;15.68;;;12.98;;
70150;SDS011;57517;43.562;19.540;2023-08-20T02:59:00;19.08;;;13.65;;
70150;SDS011;57517;43.562;19.540;2023-08-20T03:01:26;15.23;;;13.35;;
70150;SDS011;57517;43.562;19.540;2023-08-20T03:03:52;15.88;;;13.30;;
70150;SDS011;57517;43.562;19.540;2023-08-20T03:06:18;15.82;;;13.85;;
70150;SDS011;57517;43.562;19.540;2023-08-20T03:08:44;13.55;;;11.88;;
70150;SDS011;57517;43.562;19.540;2023-08-20T03:11:10;18.02;;;13.68;;
70150;SDS011;57517;43.562;19.540;2023-08-20T03:13:36;14.95;;;12.40;;
70150;SDS011;57517;43.562;19.540;2023-08-20T03:16:02;14.82;;;12.45;;
70150;SDS011;57517;43.562;19.540;2023-08-20T03:18:28;15.25;;;13.05;;
70150;SDS011;57517;43.562;19.540;2023-08-20T03:20:55;16.35;;;12.50;;
70150;SDS011;57517;43.562;19.540;2023-08-20T03:23:21;16.13;;;13.20;;
70150;SDS011;57517;43.562;19.540;2023-08-20T03:25:48;18.23;;;13.75;;
70150;SDS011;57517;43.562;19.540;2023-08-20T03:28:15;14.30;;;12.32;;
70150;SDS011;57517;43.562;19.540;2023-08-20T03:30:41;15.68;;;12.95;;
70150;SDS011;57517;43.562;19.540;2023-08-20T03:33:06;13.95;;;12.25;;
70150;SDS011;57517;43.562;19.540;2023-08-20T03:35:32;14.95;;;12.73;;
70150;SDS011;57517;43.562;19.540;2023-08-20T03:37:58;16.60;;;12.65;;
70150;SDS011;57517;43.562;19.540;2023-08-20T03:40:24;16.08;;;12.82;;
70150;SDS011;57517;43.562;19.540;2023-08-20T03:42:50;15.52;;;13.05;;
70150;SDS011;57517;43.562;19.540;2023-08-20T03:45:15;16.48;;;13.10;;
70150;SDS011;57517;43.562;19.540;2023-08-20T03:47:41;14.32;;;12.38;;
70150;SDS011;57517;43.562;19.540;2023-08-20T03:50:09;16.30;;;12.98;;
70150;SDS011;57517;43.562;19.540;2023-08-20T03:52:35;16.00;;;12.55;;
70150;SDS011;57517;43.562;19.540;2023-08-20T03:55:01;15.70;;;11.85;;
70150;SDS011;57517;43.562;19.540;2023-08-20T03:57:27;17.10;;;12.88;;
70150;SDS011;57517;43.562;19.540;2023-08-20T03:59:53;17.27;;;13.15;;
70150;SDS011;57517;43.562;19.540;2023-08-20T04:02:19;16.70;;;12.77;;
70150;SDS011;57517;43.562;19.540;2023-08-20T04:04:45;14.35;;;12.27;;
70150;SDS011;57517;43.562;19.540;2023-08-20T04:07:10;17.80;;;13.20;;
70150;SDS011;57517;43.562;19.540;2023-08-20T04:09:36;15.30;;;13.52;;
70150;SDS011;57517;43.562;19.540;2023-08-20T04:12:03;14.82;;;12.50;;
70150;SDS011;57517;43.562;19.540;2023-08-20T04:14:29;14.75;;;12.02;;
70150;SDS011;57517;43.562;19.540;2023-08-20T04:16:55;15.63;;;12.40;;
70150;SDS011;57517;43.562;19.540;2023-08-20T04:19:21;15.10;;;12.55;;
70150;SDS011;57517;43.562;19.540;2023-08-20T04:21:47;15.23;;;13.55;;
70150;SDS011;57517;43.562;19.540;2023-08-20T04:24:12;15.30;;;12.40;;
70150;SDS011;57517;43.562;19.540;2023-08-20T04:26:39;16.20;;;12.63;;
70150;SDS011;57517;43.562;19.540;2023-08-20T04:29:05;15.00;;;12.38;;
70150;SDS011;57517;43.562;19.540;2023-08-20T04:31:31;16.00;;;13.32;;
70150;SDS011;57517;43.562;19.540;2023-08-20T04:33:57;16.40;;;13.35;;
70150;SDS011;57517;43.562;19.540;2023-08-20T04:36:22;15.35;;;12.80;;
70150;SDS011;57517;43.562;19.540;2023-08-20T04:38:48;16.35;;;12.93;;
70150;SDS011;57517;43.562;19.540;2023-08-20T04:41:14;13.82;;;11.15;;
70150;SDS011;57517;43.562;19.540;2023-08-20T04:43:40;14.27;;;12.05;;
70150;SDS011;57517;43.562;19.540;2023-08-20T04:46:07;16.33;;;14.25;;
70150;SDS011;57517;43.562;19.540;2023-08-20T04:48:33;16.67;;;13.07;;
70150;SDS011;57517;43.562;19.540;2023-08-20T04:50:58;15.43;;;12.82;;
70150;SDS011;57517;43.562;19.540;2023-08-20T04:53:25;14.88;;;12.40;;
70150;SDS011;57517;43.562;19.540;2023-08-20T04:55:51;17.33;;;13.57;;
70150;SDS011;57517;43.562;19.540;2023-08-20T04:58:17;14.75;;;12.85;;
70150;SDS011;57517;43.562;19.540;2023-08-20T05:00:43;20.98;;;15.45;;
70150;SDS011;57517;43.562;19.540;2023-08-20T05:03:08;16.33;;;14.15;;
70150;SDS011;57517;43.562;19.540;2023-08-20T05:05:34;17.52;;;13.65;;
70150;SDS011;57517;43.562;19.540;2023-08-20T05:08:00;16.30;;;13.10;;
70150;SDS011;57517;43.562;19.540;2023-08-20T05:10:26;15.90;;;12.95;;
70150;SDS011;57517;43.562;19.540;2023-08-20T05:12:52;15.45;;;13.20;;
70150;SDS011;57517;43.562;19.540;2023-08-20T05:15:17;14.48;;;11.55;;
70150;SDS011;57517;43.562;19.540;2023-08-20T05:17:43;15.88;;;12.02;;
70150;SDS011;57517;43.562;19.540;2023-08-20T05:20:09;16.60;;;13.52;;
70150;SDS011;57517;43.562;19.540;2023-08-20T05:22:35;15.93;;;12.95;;
70150;SDS011;57517;43.562;19.540;2023-08-20T05:25:01;19.30;;;15.30;;
70150;SDS011;57517;43.562;19.540;2023-08-20T05:27:27;16.73;;;14.73;;
70150;SDS011;57517;43.562;19.540;2023-08-20T05:29:53;17.85;;;14.25;;
70150;SDS011;57517;43.562;19.540;2023-08-20T05:32:18;17.52;;;14.65;;
70150;SDS011;57517;43.562;19.540;2023-08-20T05:34:44;17.05;;;14.13;;
70150;SDS011;57517;43.562;19.540;2023-08-20T05:37:10;16.77;;;13.90;;
70150;SDS011;57517;43.562;19.540;2023-08-20T05:39:36;16.73;;;12.30;;
70150;SDS011;57517;43.562;19.540;2023-08-20T05:42:05;15.40;;;13.35;;
70150;SDS011;57517;43.562;19.540;2023-08-20T05:44:31;16.02;;;12.85;;
70150;SDS011;57517;43.562;19.540;2023-08-20T05:46:57;16.00;;;13.20;;
70150;SDS011;57517;43.562;19.540;2023-08-20T05:49:22;13.48;;;12.07;;
70150;SDS011;57517;43.562;19.540;2023-08-20T05:51:48;16.38;;;13.13;;
70150;SDS011;57517;43.562;19.540;2023-08-20T05:54:14;16.73;;;14.05;;
70150;SDS011;57517;43.562;19.540;2023-08-20T05:56:40;14.98;;;12.48;;
70150;SDS011;57517;43.562;19.540;2023-08-20T05:59:06;15.80;;;13.43;;
70150;SDS011;57517;43.562;19.540;2023-08-20T06:01:31;17.27;;;14.18;;
70150;SDS011;57517;43.562;19.540;2023-08-20T06:03:57;36.45;;;25.98;;
70150;SDS011;57517;43.562;19.540;2023-08-20T06:06:24;50.42;;;34.83;;
70150;SDS011;57517;43.562;19.540;2023-08-20T06:08:51;40.20;;;29.17;;
70150;SDS011;57517;43.562;19.540;2023-08-20T06:11:16;21.73;;;16.92;;
70150;SDS011;57517;43.562;19.540;2023-08-20T06:13:42;22.02;;;17.13;;
70150;SDS011;57517;43.562;19.540;2023-08-20T06:16:08;19.92;;;15.07;;
70150;SDS011;57517;43.562;19.540;2023-08-20T06:18:34;17.05;;;15.25;;
70150;SDS011;57517;43.562;19.540;2023-08-20T06:20:59;17.98;;;14.90;;
70150;SDS011;57517;43.562;19.540;2023-08-20T06:23:25;17.30;;;13.93;;
70150;SDS011;57517;43.562;19.540;2023-08-20T06:25:51;18.33;;;14.77;;
70150;SDS011;57517;43.562;19.540;2023-08-20T06:28:17;16.83;;;13.70;;
70150;SDS011;57517;43.562;19.540;2023-08-20T06:30:44;18.27;;;14.40;;
70150;SDS011;57517;43.562;19.540;2023-08-20T06:33:09;18.08;;;13.95;;
70150;SDS011;57517;43.562;19.540;2023-08-20T06:35:35;20.63;;;15.98;;
70150;SDS011;57517;43.562;19.540;2023-08-20T06:38:01;16.98;;;14.20;;
70150;SDS011;57517;43.562;19.540;2023-08-20T06:40:27;27.33;;;20.23;;
70150;SDS011;57517;43.562;19.540;2023-08-20T06:42:53;28.33;;;19.20;;
70150;SDS011;57517;43.562;19.540;2023-08-20T06:45:19;22.33;;;17.15;;
70150;SDS011;57517;43.562;19.540;2023-08-20T06:47:45;23.95;;;19.23;;
70150;SDS011;57517;43.562;19.540;2023-08-20T06:50:11;18.23;;;15.30;;
70150;SDS011;57517;43.562;19.540;2023-08-20T06:52:37;21.08;;;15.00;;
70150;SDS011;57517;43.562;19.540;2023-08-20T06:55:03;18.20;;;14.30;;
70150;SDS011;57517;43.562;19.540;2023-08-20T06:57:29;19.10;;;14.88;;
70150;SDS011;57517;43.562;19.540;2023-08-20T06:59:55;16.77;;;14.35;;
70150;SDS011;57517;43.562;19.540;2023-08-20T07:02:20;19.85;;;15.82;;
70150;SDS011;57517;43.562;19.540;2023-08-20T07:04:46;17.08;;;13.90;;
70150;SDS011;57517;43.562;19.540;2023-08-20T07:07:12;16.70;;;14.85;;
70150;SDS011;57517;43.562;19.540;2023-08-20T07:09:39;16.45;;;13.10;;
70150;SDS011;57517;43.562;19.540;2023-08-20T07:12:05;14.70;;;12.65;;
70150;SDS011;57517;43.562;19.540;2023-08-20T07:14:32;15.88;;;12.93;;
70150;SDS011;57517;43.562;19.540;2023-08-20T07:16:58;14.55;;;11.98;;
70150;SDS011;57517;43.562;19.540;2023-08-20T07:19:25;14.80;;;11.95;;
70150;SDS011;57517;43.562;19.540;2023-08-20T07:21:51;13.07;;;11.75;;
70150;SDS011;57517;43.562;19.540;2023-08-20T07:24:17;13.77;;;12.38;;
70150;SDS011;57517;43.562;19.540;2023-08-20T07:26:43;17.15;;;15.23;;
70150;SDS011;57517;43.562;19.540;2023-08-20T07:29:09;14.52;;;12.68;;
70150;SDS011;57517;43.562;19.540;2023-08-20T07:31:35;16.35;;;14.65;;
70150;SDS011;57517;43.562;19.540;2023-08-20T07:34:02;194.07;;;148.18;;
70150;SDS011;57517;43.562;19.540;2023-08-20T07:36:29;510.13;;;455.73;;
70150;SDS011;57517;43.562;19.540;2023-08-20T07:38:55;374.45;;;333.08;;
70150;SDS011;57517;43.562;19.540;2023-08-20T07:41:21;74.35;;;63.22;;
70150;SDS011;57517;43.562;19.540;2023-08-20T07:43:48;356.83;;;322.15;;
70150;SDS011;57517;43.562;19.540;2023-08-20T07:46:14;188.43;;;169.10;;
70150;SDS011;57517;43.562;19.540;2023-08-20T07:48:41;50.30;;;45.10;;
70150;SDS011;57517;43.562;19.540;2023-08-20T07:51:07;24.25;;;21.77;;
70150;SDS011;57517;43.562;19.540;2023-08-20T07:53:34;24.15;;;21.60;;
70150;SDS011;57517;43.562;19.540;2023-08-20T07:56:01;66.10;;;59.03;;
70150;SDS011;57517;43.562;19.540;2023-08-20T07:58:27;132.88;;;119.03;;
70150;SDS011;57517;43.562;19.540;2023-08-20T08:00:53;45.47;;;40.67;;
70150;SDS011;57517;43.562;19.540;2023-08-20T08:03:19;54.13;;;48.50;;
70150;SDS011;57517;43.562;19.540;2023-08-20T08:05:46;24.95;;;22.45;;
70150;SDS011;57517;43.562;19.540;2023-08-20T08:08:13;25.48;;;22.98;;
70150;SDS011;57517;43.562;19.540;2023-08-20T08:10:39;37.45;;;33.63;;
70150;SDS011;57517;43.562;19.540;2023-08-20T08:13:05;18.30;;;16.38;;
70150;SDS011;57517;43.562;19.540;2023-08-20T08:15:31;19.05;;;16.75;;
70150;SDS011;57517;43.562;19.540;2023-08-20T08:17:58;19.90;;;17.15;;
70150;SDS011;57517;43.562;19.540;2023-08-20T08:20:24;44.03;;;39.55;;
70150;SDS011;57517;43.562;19.540;2023-08-20T08:22:50;28.52;;;25.63;;
70150;SDS011;57517;43.562;19.540;2023-08-20T08:25:16;22.90;;;20.33;;
70150;SDS011;57517;43.562;19.540;2023-08-20T08:27:43;17.73;;;15.90;;
70150;SDS011;57517;43.562;19.540;2023-08-20T08:30:09;18.60;;;16.13;;
70150;SDS011;57517;43.562;19.540;2023-08-20T08:32:35;16.80;;;15.02;;
70150;SDS011;57517;43.562;19.540;2023-08-20T08:35:01;17.13;;;15.32;;
70150;SDS011;57517;43.562;19.540;2023-08-20T08:37:28;18.25;;;15.65;;
70150;SDS011;57517;43.562;19.540;2023-08-20T08:39:54;27.90;;;23.10;;
70150;SDS011;57517;43.562;19.540;2023-08-20T08:42:20;19.98;;;17.83;;
70150;SDS011;57517;43.562;19.540;2023-08-20T08:44:48;16.80;;;14.85;;
70150;SDS011;57517;43.562;19.540;2023-08-20T08:47:15;16.48;;;14.77;;
70150;SDS011;57517;43.562;19.540;2023-08-20T08:49:42;17.02;;;14.55;;
70150;SDS011;57517;43.562;19.540;2023-08-20T08:52:08;18.52;;;15.00;;
70150;SDS011;57517;43.562;19.540;2023-08-20T08:54:36;16.60;;;14.82;;
70150;SDS011;57517;43.562;19.540;2023-08-20T08:57:02;17.83;;;15.93;;
70150;SDS011;57517;43.562;19.540;2023-08-20T08:59:28;16.63;;;14.82;;
70150;SDS011;57517;43.562;19.540;2023-08-20T09:01:54;18.27;;;16.02;;
70150;SDS011;57517;43.562;19.540;2023-08-20T09:04:22;18.77;;;15.68;;
70150;SDS011;57517;43.562;19.540;2023-08-20T09:06:49;18.23;;;16.20;;
70150;SDS011;57517;43.562;19.540;2023-08-20T09:09:19;18.42;;;16.08;;
70150;SDS011;57517;43.562;19.540;2023-08-20T09:11:45;18.55;;;15.93;;
70150;SDS011;57517;43.562;19.540;2023-08-20T09:16:57;18.85;;;16.63;;
70150;SDS011;57517;43.562;19.540;2023-08-20T09:19:23;19.25;;;16.95;;
70150;SDS011;57517;43.562;19.540;2023-08-20T09:21:49;18.63;;;16.52;;
70150;SDS011;57517;43.562;19.540;2023-08-20T09:24:25;17.45;;;15.55;;
70150;SDS011;57517;43.562;19.540;2023-08-20T09:26:56;23.77;;;17.77;;
70150;SDS011;57517;43.562;19.540;2023-08-20T09:29:23;17.35;;;15.55;;
70150;SDS011;57517;43.562;19.540;2023-08-20T09:31:49;18.70;;;16.42;;
70150;SDS011;57517;43.562;19.540;2023-08-20T09:34:15;21.02;;;17.88;;
70150;SDS011;57517;43.562;19.540;2023-08-20T09:36:42;21.88;;;16.65;;
70150;SDS011;57517;43.562;19.540;2023-08-20T09:39:08;19.23;;;16.00;;
70150;SDS011;57517;43.562;19.540;2023-08-20T09:41:35;18.98;;;16.80;;
70150;SDS011;57517;43.562;19.540;2023-08-20T09:44:03;19.98;;;15.73;;
70150;SDS011;57517;43.562;19.540;2023-08-20T09:46:31;20.27;;;17.02;;
70150;SDS011;57517;43.562;19.540;2023-08-20T09:48:57;19.63;;;16.10;;
70150;SDS011;57517;43.562;19.540;2023-08-20T09:51:27;18.25;;;16.25;;
70150;SDS011;57517;43.562;19.540;2023-08-20T09:56:30;20.20;;;17.90;;
70150;SDS011;57517;43.562;19.540;2023-08-20T09:59:00;21.70;;;19.33;;
70150;SDS011;57517;43.562;19.540;2023-08-20T10:01:27;19.10;;;17.00;;
70150;SDS011;57517;43.562;19.540;2023-08-20T10:03:54;35.42;;;25.95;;
70150;SDS011;57517;43.562;19.540;2023-08-20T10:06:20;25.90;;;21.55;;
70150;SDS011;57517;43.562;19.540;2023-08-20T10:08:46;21.38;;;19.10;;
70150;SDS011;57517;43.562;19.540;2023-08-20T10:11:14;26.35;;;20.67;;
70150;SDS011;57517;43.562;19.540;2023-08-20T10:13:40;24.92;;;21.17;;
70150;SDS011;57517;43.562;19.540;2023-08-20T10:16:06;26.52;;;21.65;;
70150;SDS011;57517;43.562;19.540;2023-08-20T10:18:34;25.85;;;20.88;;
70150;SDS011;57517;43.562;19.540;2023-08-20T10:21:00;20.42;;;16.75;;
70150;SDS011;57517;43.562;19.540;2023-08-20T10:23:27;18.70;;;16.70;;
70150;SDS011;57517;43.562;19.540;2023-08-20T10:25:53;18.55;;;16.63;;
70150;SDS011;57517;43.562;19.540;2023-08-20T10:28:24;19.42;;;17.45;;
70150;SDS011;57517;43.562;19.540;2023-08-20T10:31:10;18.45;;;16.15;;
70150;SDS011;57517;43.562;19.540;2023-08-20T10:33:49;18.10;;;16.13;;
70150;SDS011;57517;43.562;19.540;2023-08-20T10:36:20;18.05;;;15.90;;
70150;SDS011;57517;43.562;19.540;2023-08-20T10:38:55;18.00;;;16.10;;
70150;SDS011;57517;43.562;19.540;2023-08-20T10:41:26;18.17;;;16.25;;
70150;SDS011;57517;43.562;19.540;2023-08-20T10:43:54;18.13;;;16.30;;
70150;SDS011;57517;43.562;19.540;2023-08-20T10:46:23;19.00;;;16.70;;
70150;SDS011;57517;43.562;19.540;2023-08-20T10:49:01;18.63;;;16.63;;
70150;SDS011;57517;43.562;19.540;2023-08-20T10:54:05;19.15;;;16.33;;
70150;SDS011;57517;43.562;19.540;2023-08-20T10:56:48;19.20;;;17.02;;
70150;SDS011;57517;43.562;19.540;2023-08-20T11:01:55;19.40;;;16.73;;
70150;SDS011;57517;43.562;19.540;2023-08-20T11:04:28;18.00;;;15.70;;
70150;SDS011;57517;43.562;19.540;2023-08-20T11:06:57;18.20;;;16.17;;
70150;SDS011;57517;43.562;19.540;2023-08-20T11:09:25;16.55;;;14.52;;
70150;SDS011;57517;43.562;19.540;2023-08-20T11:11:52;16.50;;;14.80;;
70150;SDS011;57517;43.562;19.540;2023-08-20T11:14:19;18.08;;;14.90;;
70150;SDS011;57517;43.562;19.540;2023-08-20T11:16:47;19.80;;;15.52;;
70150;SDS011;57517;43.562;19.540;2023-08-20T11:19:13;16.92;;;15.23;;
70150;SDS011;57517;43.562;19.540;2023-08-20T11:21:43;14.80;;;13.30;;
70150;SDS011;57517;43.562;19.540;2023-08-20T11:24:11;18.30;;;15.15;;
70150;SDS011;57517;43.562;19.540;2023-08-20T11:26:40;15.68;;;13.93;;
70150;SDS011;57517;43.562;19.540;2023-08-20T11:29:08;16.27;;;14.35;;
70150;SDS011;57517;43.562;19.540;2023-08-20T11:31:36;17.02;;;14.50;;
70150;SDS011;57517;43.562;19.540;2023-08-20T11:34:02;14.40;;;12.50;;
70150;SDS011;57517;43.562;19.540;2023-08-20T11:36:28;16.20;;;13.68;;
70150;SDS011;57517;43.562;19.540;2023-08-20T11:38:55;17.63;;;13.82;;
70150;SDS011;57517;43.562;19.540;2023-08-20T11:41:21;15.68;;;12.30;;
70150;SDS011;57517;43.562;19.540;2023-08-20T11:43:47;10.60;;;9.50;;
70150;SDS011;57517;43.562;19.540;2023-08-20T11:46:15;14.43;;;12.00;;
70150;SDS011;57517;43.562;19.540;2023-08-20T11:51:39;13.68;;;10.40;;
70150;SDS011;57517;43.562;19.540;2023-08-20T11:54:13;10.77;;;9.05;;
70150;SDS011;57517;43.562;19.540;2023-08-20T11:56:50;22.27;;;16.02;;
70150;SDS011;57517;43.562;19.540;2023-08-20T11:59:17;10.60;;;9.05;;
70150;SDS011;57517;43.562;19.540;2023-08-20T12:02:24;19.33;;;12.30;;
70150;SDS011;57517;43.562;19.540;2023-08-20T12:04:36;9.02;;;7.43;;
70150;SDS011;57517;43.562;19.540;2023-08-20T12:09:31;10.32;;;7.70;;
70150;SDS011;57517;43.562;19.540;2023-08-20T12:11:58;12.10;;;7.85;;
70150;SDS011;57517;43.562;19.540;2023-08-20T12:14:24;8.68;;;7.78;;
70150;SDS011;57517;43.562;19.540;2023-08-20T12:16:50;10.25;;;8.75;;
70150;SDS011;57517;43.562;19.540;2023-08-20T12:19:16;8.45;;;7.57;;
70150;SDS011;57517;43.562;19.540;2023-08-20T12:21:47;9.57;;;8.27;;
70150;SDS011;57517;43.562;19.540;2023-08-20T12:24:14;9.60;;;8.38;;
70150;SDS011;57517;43.562;19.540;2023-08-20T12:26:40;10.50;;;8.45;;
70150;SDS011;57517;43.562;19.540;2023-08-20T12:29:06;10.27;;;8.63;;
70150;SDS011;57517;43.562;19.540;2023-08-20T12:31:32;25.45;;;17.95;;
70150;SDS011;57517;43.562;19.540;2023-08-20T12:33:59;12.45;;;10.95;;
70150;SDS011;57517;43.562;19.540;2023-08-20T12:36:26;9.77;;;8.60;;
70150;SDS011;57517;43.562;19.540;2023-08-20T12:38:52;10.93;;;9.30;;
70150;SDS011;57517;43.562;19.540;2023-08-20T12:41:18;9.95;;;8.45;;
70150;SDS011;57517;43.562;19.540;2023-08-20T12:43:45;10.35;;;9.25;;
70150;SDS011;57517;43.562;19.540;2023-08-20T12:46:10;9.77;;;8.70;;
70150;SDS011;57517;43.562;19.540;2023-08-20T12:48:38;9.95;;;7.97;;
70150;SDS011;57517;43.562;19.540;2023-08-20T12:51:03;11.55;;;8.90;;
70150;SDS011;57517;43.562;19.540;2023-08-20T12:53:29;11.15;;;10.00;;
70150;SDS011;57517;43.562;19.540;2023-08-20T12:55:55;10.68;;;9.57;;
70150;SDS011;57517;43.562;19.540;2023-08-20T12:58:22;10.50;;;9.40;;
70150;SDS011;57517;43.562;19.540;2023-08-20T13:00:48;10.15;;;9.15;;
70150;SDS011;57517;43.562;19.540;2023-08-20T13:03:14;11.55;;;9.77;;
70150;SDS011;57517;43.562;19.540;2023-08-20T13:05:40;11.35;;;9.85;;
70150;SDS011;57517;43.562;19.540;2023-08-20T13:08:06;11.45;;;10.25;;
70150;SDS011;57517;43.562;19.540;2023-08-20T13:10:32;10.25;;;9.20;;
70150;SDS011;57517;43.562;19.540;2023-08-20T13:13:01;11.35;;;9.50;;
70150;SDS011;57517;43.562;19.540;2023-08-20T13:15:28;9.80;;;8.88;;
70150;SDS011;57517;43.562;19.540;2023-08-20T13:17:55;10.13;;;8.50;;
70150;SDS011;57517;43.562;19.540;2023-08-20T13:20:21;9.70;;;8.68;;
70150;SDS011;57517;43.562;19.540;2023-08-20T13:22:48;10.25;;;9.18;;
70150;SDS011;57517;43.562;19.540;2023-08-20T13:25:15;9.82;;;8.82;;
70150;SDS011;57517;43.562;19.540;2023-08-20T13:27:41;10.93;;;8.80;;
70150;SDS011;57517;43.562;19.540;2023-08-20T13:30:07;9.80;;;8.13;;
70150;SDS011;57517;43.562;19.540;2023-08-20T13:32:36;12.88;;;8.02;;
70150;SDS011;57517;43.562;19.540;2023-08-20T13:35:03;10.27;;;9.07;;
70150;SDS011;57517;43.562;19.540;2023-08-20T13:37:29;10.23;;;8.63;;
70150;SDS011;57517;43.562;19.540;2023-08-20T13:39:56;10.75;;;8.88;;
70150;SDS011;57517;43.562;19.540;2023-08-20T13:42:22;15.25;;;12.02;;
70150;SDS011;57517;43.562;19.540;2023-08-20T13:44:48;14.48;;;12.02;;
70150;SDS011;57517;43.562;19.540;2023-08-20T13:47:14;11.10;;;9.90;;
70150;SDS011;57517;43.562;19.540;2023-08-20T13:49:39;15.07;;;13.18;;
70150;SDS011;57517;43.562;19.540;2023-08-20T13:52:05;16.38;;;13.93;;
70150;SDS011;57517;43.562;19.540;2023-08-20T13:54:32;16.20;;;12.55;;
70150;SDS011;57517;43.562;19.540;2023-08-20T13:56:58;11.88;;;10.32;;
70150;SDS011;57517;43.562;19.540;2023-08-20T13:59:24;11.40;;;9.70;;
70150;SDS011;57517;43.562;19.540;2023-08-20T14:01:50;11.95;;;10.65;;
70150;SDS011;57517;43.562;19.540;2023-08-20T14:04:16;11.80;;;9.82;;
70150;SDS011;57517;43.562;19.540;2023-08-20T14:06:41;13.30;;;11.90;;
70150;SDS011;57517;43.562;19.540;2023-08-20T14:09:07;12.00;;;10.60;;
70150;SDS011;57517;43.562;19.540;2023-08-20T14:11:33;10.65;;;9.55;;
70150;SDS011;57517;43.562;19.540;2023-08-20T14:13:59;11.88;;;10.68;;
70150;SDS011;57517;43.562;19.540;2023-08-20T14:16:25;10.88;;;9.07;;
70150;SDS011;57517;43.562;19.540;2023-08-20T14:18:51;10.60;;;9.50;;
70150;SDS011;57517;43.562;19.540;2023-08-20T14:21:16;10.95;;;9.85;;
70150;SDS011;57517;43.562;19.540;2023-08-20T14:23:42;12.68;;;10.57;;
70150;SDS011;57517;43.562;19.540;2023-08-20T14:26:08;12.25;;;10.20;;
70150;SDS011;57517;43.562;19.540;2023-08-20T14:28:34;12.57;;;11.18;;
70150;SDS011;57517;43.562;19.540;2023-08-20T14:31:03;15.82;;;12.48;;
70150;SDS011;57517;43.562;19.540;2023-08-20T14:33:29;11.00;;;9.77;;
70150;SDS011;57517;43.562;19.540;2023-08-20T14:35:56;10.45;;;9.18;;